Time;durP1;ratioP1;P1;durP2;ratioP2;P2;SDS_P1;SDS_P2;PMS_P1;PMS_P2;Temp;Humidity;BMP_temperature;BMP_pressure;BME280_temperature;BME280_humidity;BME280_pressure;Samples;Min_cycle;Max_cycle;Signal;HPM_P1;HPM_P2
2022/03/11 00:00:34;;;;;;;19.23;9.60;;;;;;;5.66;41.91;99675.94;5057322;28;20036;-51
2022/03/11 00:02:59;;;;;;;18.98;9.50;;;;;;;5.72;41.52;99675.16;5058330;28;20089;-53
2022/03/11 00:05:25;;;;;;;18.25;9.30;;;;;;;5.67;41.74;99674.13;5056422;28;20045;-52
2022/03/11 00:07:51;;;;;;;20.08;9.35;;;;;;;5.73;41.42;99676.81;5056212;28;20024;-53
2022/03/11 00:10:16;;;;;;;22.10;9.73;;;;;;;5.75;41.57;99669.44;5051579;28;20501;-54
2022/03/11 00:12:41;;;;;;;19.23;9.38;;;;;;;5.77;41.61;99669.25;5051873;28;20035;-54
2022/03/11 00:15:07;;;;;;;20.92;8.77;;;;;;;5.66;41.57;99667.16;5058657;28;20534;-50
2022/03/11 00:17:33;;;;;;;18.58;8.73;;;;;;;5.72;41.87;99669.84;5054477;28;20422;-52
2022/03/11 00:19:59;;;;;;;20.33;10.02;;;;;;;5.70;41.55;99671.88;5057344;28;20025;-55
2022/03/11 00:22:24;;;;;;;20.35;9.15;;;;;;;5.76;41.33;99656.97;5053928;28;20047;-54
2022/03/11 00:24:50;;;;;;;16.55;8.65;;;;;;;5.71;41.57;99662.88;5055898;28;20379;-54
2022/03/11 00:27:15;;;;;;;14.50;8.68;;;;;;;5.65;41.71;99652.25;5050051;28;20071;-53
2022/03/11 00:29:40;;;;;;;19.17;9.57;;;;;;;5.70;41.89;99666.56;5052066;28;20459;-53
2022/03/11 00:32:06;;;;;;;20.20;9.90;;;;;;;5.54;42.04;99661.59;5050581;28;20040;-54
2022/03/11 00:34:32;;;;;;;19.88;9.05;;;;;;;5.47;43.06;99664.25;5051503;28;20029;-54
2022/03/11 00:36:58;;;;;;;18.88;8.75;;;;;;;5.29;42.84;99659.47;5050339;28;20438;-54
2022/03/11 00:39:23;;;;;;;14.82;8.50;;;;;;;5.27;42.94;99661.50;5051612;28;20037;-51
2022/03/11 00:41:49;;;;;;;16.98;8.90;;;;;;;5.06;43.11;99664.22;5059676;28;20028;-53
2022/03/11 00:44:15;;;;;;;19.00;8.57;;;;;;;5.05;44.52;99667.91;5058663;28;20024;-53
2022/03/11 00:46:41;;;;;;;23.73;9.38;;;;;;;4.92;43.83;99669.47;5058920;28;20029;-52
2022/03/11 00:49:06;;;;;;;24.88;9.65;;;;;;;4.74;45.41;99671.78;5051296;28;20022;-52
2022/03/11 00:51:33;;;;;;;20.90;9.13;;;;;;;4.59;44.73;99668.41;5081868;28;20040;-53
2022/03/11 00:53:58;;;;;;;18.48;9.27;;;;;;;4.19;46.02;99670.72;5055935;28;20078;-53
2022/03/11 00:56:24;;;;;;;18.40;8.80;;;;;;;3.97;46.58;99678.69;5056718;28;20025;-52
2022/03/11 00:58:49;;;;;;;19.17;9.82;;;;;;;4.13;46.43;99666.19;5059596;28;20486;-51
2022/03/11 01:01:15;;;;;;;19.05;9.20;;;;;;;3.94;46.94;99662.31;5055268;28;20474;-54
2022/03/11 01:03:40;;;;;;;19.05;9.23;;;;;;;4.43;46.17;99665.03;5065979;28;20048;-51
2022/03/11 01:06:06;;;;;;;22.58;8.85;;;;;;;3.86;47.42;99658.78;5059684;28;20467;-54
2022/03/11 01:08:31;;;;;;;20.30;9.38;;;;;;;3.32;49.47;99655.72;5062007;28;20094;-51
2022/03/11 01:10:56;;;;;;;17.83;9.20;;;;;;;3.04;50.39;99659.03;5048844;28;20025;-52
2022/03/11 01:13:22;;;;;;;22.48;9.65;;;;;;;2.83;51.68;99658.94;5050254;28;20035;-52
2022/03/11 01:15:47;;;;;;;19.33;9.52;;;;;;;2.46;52.19;99655.31;5056447;28;20021;-54
2022/03/11 01:18:13;;;;;;;16.52;9.00;;;;;;;2.56;55.85;99653.25;5082670;28;20029;-53
2022/03/11 01:20:38;;;;;;;24.40;8.73;;;;;;;2.29;53.18;99644.88;5061295;28;20040;-54
2022/03/11 01:23:04;;;;;;;22.85;9.20;;;;;;;2.18;53.28;99650.59;5052516;28;20036;-52
2022/03/11 01:25:29;;;;;;;19.45;9.60;;;;;;;2.26;52.92;99633.84;5049996;28;20040;-51
2022/03/11 01:27:55;;;;;;;18.65;9.35;;;;;;;2.27;53.38;99644.25;5052187;28;20086;-53
2022/03/11 01:30:21;;;;;;;22.23;10.35;;;;;;;2.15;53.24;99643.03;5053964;28;20035;-50
2022/03/11 01:32:46;;;;;;;17.67;8.65;;;;;;;2.21;55.66;99652.88;5049998;28;20048;-54
2022/03/11 01:35:12;;;;;;;22.77;9.98;;;;;;;2.14;53.85;99650.13;5086690;28;20029;-51
2022/03/11 01:37:37;;;;;;;17.15;8.77;;;;;;;2.12;54.53;99643.38;5058696;28;20056;-50
2022/03/11 01:40:06;;;;;;;19.55;9.05;;;;;;;2.26;53.88;99641.78;5050183;28;20041;-51
2022/03/11 01:42:34;;;;;;;18.83;9.23;;;;;;;2.16;54.53;99639.38;5048291;28;20041;-50
2022/03/11 01:45:00;;;;;;;16.42;8.93;;;;;;;2.18;54.00;99647.97;5050502;28;20459;-53
2022/03/11 01:47:25;;;;;;;15.48;7.97;;;;;;;2.50;58.07;99640.75;5083935;28;20031;-54
2022/03/11 01:49:51;;;;;;;22.00;9.65;;;;;;;2.24;53.70;99638.47;5056104;28;20025;-51
2022/03/11 01:52:16;;;;;;;23.92;9.15;;;;;;;2.24;57.62;99636.66;5055251;28;20075;-53
2022/03/11 01:54:42;;;;;;;18.08;8.68;;;;;;;2.59;54.01;99629.06;5051532;28;20050;-51
2022/03/11 01:57:08;;;;;;;21.65;9.05;;;;;;;2.53;54.55;99643.03;5052491;28;20399;-53
2022/03/11 01:59:33;;;;;;;16.70;8.65;;;;;;;2.61;54.34;99637.66;5048175;28;20063;-54
2022/03/11 02:01:58;;;;;;;18.70;8.63;;;;;;;2.38;55.09;99637.69;5051153;28;20043;-53
2022/03/11 02:04:24;;;;;;;17.98;8.57;;;;;;;2.51;54.29;99635.25;5057918;28;20083;-54
2022/03/11 02:06:49;;;;;;;22.75;10.52;;;;;;;2.52;53.75;99633.44;5046784;28;20463;-54
2022/03/11 02:09:15;;;;;;;16.60;8.48;;;;;;;2.38;56.01;99632.41;5075795;28;20032;-53
2022/03/11 02:11:41;;;;;;;18.45;9.13;;;;;;;2.52;55.01;99638.72;5054384;28;20058;-52
2022/03/11 02:14:06;;;;;;;16.25;9.07;;;;;;;3.01;54.45;99639.03;5053198;28;20037;-53
2022/03/11 02:16:33;;;;;;;23.25;9.98;;;;;;;2.37;54.27;99626.31;5054438;28;20021;-54
2022/03/11 02:18:59;;;;;;;22.15;10.13;;;;;;;2.07;55.67;99625.41;5056613;28;20040;-53
2022/03/11 02:21:26;;;;;;;24.17;9.90;;;;;;;2.23;56.19;99623.63;5049136;28;20497;-51
2022/03/11 02:23:52;;;;;;;24.58;9.88;;;;;;;2.23;58.03;99619.16;5054232;28;20314;-53
2022/03/11 02:26:18;;;;;;;20.80;9.30;;;;;;;2.30;56.31;99620.09;5057368;28;20044;-53
2022/03/11 02:28:44;;;;;;;20.38;10.40;;;;;;;2.18;57.04;99616.22;5055446;28;20035;-51
2022/03/11 02:31:10;;;;;;;19.02;9.48;;;;;;;1.93;56.92;99618.25;5057469;28;20056;-52
2022/03/11 02:33:35;;;;;;;20.05;9.40;;;;;;;2.05;57.84;99616.81;5085045;28;20471;-54
2022/03/11 02:36:01;;;;;;;21.83;10.05;;;;;;;1.85;57.52;99620.97;5047369;28;20062;-51
2022/03/11 02:38:27;;;;;;;20.50;9.70;;;;;;;1.70;57.63;99610.31;5059870;28;20351;-54
2022/03/11 02:40:52;;;;;;;23.83;9.85;;;;;;;1.69;58.38;99611.28;5057979;28;20126;-50
2022/03/11 02:43:18;;;;;;;25.48;10.10;;;;;;;1.60;57.83;99618.47;5058014;28;20032;-52
2022/03/11 02:45:43;;;;;;;19.73;9.45;;;;;;;1.46;58.11;99606.81;5049267;28;20078;-54
2022/03/11 02:48:09;;;;;;;20.98;9.15;;;;;;;1.56;56.90;99611.88;5066071;28;20390;-51
2022/03/11 02:50:34;;;;;;;21.77;8.98;;;;;;;1.58;57.67;99598.50;5057478;28;20459;-54
2022/03/11 02:52:59;;;;;;;25.42;9.18;;;;;;;1.63;57.06;99606.72;5055759;28;20048;-54
2022/03/11 02:55:25;;;;;;;21.35;10.05;;;;;;;1.72;58.53;99611.78;5048539;28;20064;-53
2022/03/11 02:57:50;;;;;;;18.48;8.10;;;;;;;2.03;58.51;99605.59;5048611;28;20028;-51
2022/03/11 03:00:16;;;;;;;18.70;9.52;;;;;;;1.45;58.71;99604.38;5051672;28;20044;-55
2022/03/11 03:02:42;;;;;;;24.05;10.32;;;;;;;1.41;59.78;99603.88;5055123;28;20059;-52
2022/03/11 03:05:07;;;;;;;24.50;10.00;;;;;;;1.96;59.80;99596.72;5048732;28;20083;-51
2022/03/11 03:07:33;;;;;;;19.25;9.57;;;;;;;1.69;57.92;99595.44;5052057;28;20040;-52
2022/03/11 03:09:58;;;;;;;16.95;8.48;;;;;;;1.84;58.18;99601.59;5061911;28;20036;-52
2022/03/11 03:12:27;;;;;;;19.92;9.07;;;;;;;1.77;59.08;99598.03;5050368;28;20035;-50
2022/03/11 03:14:52;;;;;;;18.33;8.75;;;;;;;2.06;61.63;99597.31;5058521;28;20033;-51
2022/03/11 03:17:18;;;;;;;20.35;9.30;;;;;;;2.13;59.43;99597.44;5052684;28;20093;-51
2022/03/11 03:19:44;;;;;;;20.63;9.57;;;;;;;2.44;57.65;99596.47;5051741;28;20032;-53
2022/03/11 03:22:10;;;;;;;19.38;9.63;;;;;;;2.66;56.87;99598.22;5049256;28;20033;-52
2022/03/11 03:24:35;;;;;;;18.88;9.68;;;;;;;2.77;56.97;99604.88;5052102;28;20483;-52
2022/03/11 03:27:02;;;;;;;19.08;10.57;;;;;;;2.81;58.08;99595.56;5054749;28;20033;-50
2022/03/11 03:29:27;;;;;;;21.98;10.23;;;;;;;2.52;59.91;99607.81;5055173;28;20017;-55
2022/03/11 03:31:57;;;;;;;21.73;10.50;;;;;;;2.33;58.88;99603.84;5047707;28;20082;-53
2022/03/11 03:34:25;;;;;;;24.58;11.05;;;;;;;2.38;61.75;99605.97;5049989;28;20486;-52
2022/03/11 03:36:51;;;;;;;22.58;10.77;;;;;;;2.05;58.74;99606.25;5051491;28;20563;-54
2022/03/11 03:39:16;;;;;;;22.50;11.10;;;;;;;1.19;61.32;99604.66;5085822;28;20033;-54
2022/03/11 03:41:42;;;;;;;25.35;10.90;;;;;;;1.44;61.85;99613.28;5060972;28;20039;-51
2022/03/11 03:44:07;;;;;;;19.35;9.50;;;;;;;1.05;63.39;99614.94;5061729;28;20037;-53
2022/03/11 03:46:32;;;;;;;21.02;11.00;;;;;;;0.92;63.94;99617.28;5055967;28;20033;-53
2022/03/11 03:48:59;;;;;;;23.23;10.70;;;;;;;1.16;63.66;99615.56;5059218;28;20071;-54
2022/03/11 03:51:25;;;;;;;21.05;11.15;;;;;;;1.11;62.65;99608.16;5057369;28;20032;-54
2022/03/11 03:53:50;;;;;;;20.55;10.35;;;;;;;1.07;63.63;99620.88;5050934;28;20083;-55
2022/03/11 03:56:15;;;;;;;22.83;10.95;;;;;;;1.06;63.21;99615.78;5053391;28;20559;-53
2022/03/11 03:58:41;;;;;;;22.75;11.13;;;;;;;0.98;64.03;99616.63;5053549;28;20032;-52
2022/03/11 04:01:06;;;;;;;21.40;11.38;;;;;;;1.56;62.17;99611.06;5066032;28;20036;-51
2022/03/11 04:03:32;;;;;;;22.08;10.18;;;;;;;1.58;60.88;99614.34;5053208;28;20056;-52
2022/03/11 04:05:57;;;;;;;26.10;11.70;;;;;;;1.69;61.72;99606.00;5053071;28;20481;-53
2022/03/11 04:08:22;;;;;;;23.67;11.63;;;;;;;1.92;61.25;99614.78;5051624;28;20433;-51
2022/03/11 04:10:48;;;;;;;28.08;12.05;;;;;;;1.91;61.53;99620.22;5055343;28;20025;-52
2022/03/11 04:13:14;;;;;;;24.95;11.57;;;;;;;2.01;61.13;99609.41;5056454;28;20075;-53
2022/03/11 04:15:39;;;;;;;23.63;11.55;;;;;;;1.97;61.78;99610.75;5057182;28;20033;-51
2022/03/11 04:18:05;;;;;;;23.30;12.57;;;;;;;1.82;62.20;99621.28;5055995;28;20033;-53
2022/03/11 04:20:30;;;;;;;22.65;10.98;;;;;;;1.74;62.69;99619.53;5051201;28;20033;-51
2022/03/11 04:22:56;;;;;;;28.30;13.13;;;;;;;1.68;63.19;99617.59;5052425;28;20037;-54
2022/03/11 04:25:21;;;;;;;30.40;12.82;;;;;;;1.77;64.11;99616.53;5056788;28;20039;-50
2022/03/11 04:27:47;;;;;;;25.70;12.52;;;;;;;1.78;64.45;99618.19;5053743;28;20037;-51
2022/03/11 04:30:12;;;;;;;25.95;12.45;;;;;;;1.56;65.19;99608.41;5062110;28;20044;-51
2022/03/11 04:32:37;;;;;;;22.27;11.68;;;;;;;1.43;63.98;99612.44;5051259;28;20094;-51
2022/03/11 04:35:03;;;;;;;27.25;12.75;;;;;;;1.33;66.05;99625.06;5049516;28;20426;-54
2022/03/11 04:37:29;;;;;;;27.23;13.20;;;;;;;1.33;67.08;99627.69;5054925;28;20043;-54
2022/03/11 04:39:54;;;;;;;24.83;11.73;;;;;;;1.11;65.50;99617.91;5056255;28;20064;-51
2022/03/11 04:42:20;;;;;;;23.58;11.80;;;;;;;1.48;68.06;99619.88;5059392;28;20032;-51
2022/03/11 04:44:45;;;;;;;22.70;12.18;;;;;;;1.61;68.77;99614.00;5058854;28;20021;-51
2022/03/11 04:47:10;;;;;;;26.60;12.07;;;;;;;1.57;65.32;99624.09;5050729;28;20032;-51
2022/03/11 04:49:36;;;;;;;29.48;13.98;;;;;;;1.65;64.58;99628.53;5056801;28;20032;-52
2022/03/11 04:52:01;;;;;;;26.63;13.38;;;;;;;1.94;64.02;99618.03;5081669;28;20121;-52
2022/03/11 04:54:27;;;;;;;26.05;13.65;;;;;;;1.60;64.44;99617.63;5060103;28;20547;-54
2022/03/11 04:56:52;;;;;;;33.70;14.27;;;;;;;1.97;64.60;99616.88;5050143;28;20044;-50
2022/03/11 04:59:18;;;;;;;23.50;12.70;;;;;;;2.33;62.67;99614.44;5051544;28;20021;-50
2022/03/11 05:01:43;;;;;;;23.77;12.65;;;;;;;2.03;63.30;99618.00;5050120;28;20040;-52
2022/03/11 05:04:09;;;;;;;27.27;12.82;;;;;;;1.95;62.76;99618.88;5050733;28;20033;-52
2022/03/11 05:06:34;;;;;;;26.48;12.50;;;;;;;1.55;63.53;99609.41;5056698;28;20487;-52
2022/03/11 05:08:59;;;;;;;27.90;13.82;;;;;;;1.67;63.36;99602.72;5060235;28;20029;-52
2022/03/11 05:11:25;;;;;;;26.67;12.77;;;;;;;1.83;62.36;99609.72;5058184;28;20039;-54
2022/03/11 05:13:50;;;;;;;29.00;13.32;;;;;;;1.63;63.08;99609.38;5061117;28;20016;-53
2022/03/11 05:16:16;;;;;;;30.33;12.02;;;;;;;1.67;62.75;99613.28;5051316;28;20549;-51
2022/03/11 05:18:41;;;;;;;28.73;13.25;;;;;;;1.68;63.03;99612.31;5050699;28;20028;-52
2022/03/11 05:21:06;;;;;;;23.40;12.25;;;;;;;1.71;62.87;99614.59;5053988;28;20037;-50
2022/03/11 05:23:32;;;;;;;27.80;14.18;;;;;;;1.62;63.14;99610.34;5061356;28;20028;-51
2022/03/11 05:25:57;;;;;;;27.67;13.30;;;;;;;1.63;63.51;99609.38;5056695;28;20545;-51
2022/03/11 05:28:23;;;;;;;29.60;15.45;;;;;;;1.48;63.91;99615.41;5049745;28;20025;-52
2022/03/11 05:30:48;;;;;;;31.75;14.90;;;;;;;1.46;64.06;99609.47;5087078;28;20463;-52
2022/03/11 05:33:14;;;;;;;30.65;15.45;;;;;;;1.37;64.75;99613.13;5059713;28;20043;-51
2022/03/11 05:35:41;;;;;;;33.70;16.00;;;;;;;1.14;65.95;99607.00;5053957;28;20033;-52
2022/03/11 05:38:06;;;;;;;28.23;13.35;;;;;;;1.07;65.58;99610.34;5055227;28;20025;-54
2022/03/11 05:40:31;;;;;;;32.15;14.95;;;;;;;1.00;66.25;99612.00;5088211;27;20029;-53
2022/03/11 05:42:57;;;;;;;37.50;16.00;;;;;;;0.84;67.06;99609.41;5053145;28;20067;-54
2022/03/11 05:45:22;;;;;;;32.45;15.77;;;;;;;0.90;66.37;99606.09;5054274;28;20021;-52
2022/03/11 05:47:48;;;;;;;31.70;15.90;;;;;;;1.15;66.51;99605.97;5053999;28;20029;-52
2022/03/11 05:50:13;;;;;;;31.90;14.98;;;;;;;1.31;66.80;99611.19;5056755;28;20033;-51
2022/03/11 05:52:40;;;;;;;32.55;14.75;;;;;;;1.20;66.94;99604.50;5052397;28;20044;-51
2022/03/11 05:55:05;;;;;;;39.28;14.75;;;;;;;1.11;67.88;99607.34;5048218;28;20036;-53
2022/03/11 05:57:31;;;;;;;35.28;15.27;;;;;;;0.87;68.23;99611.69;5060545;28;20105;-54
2022/03/11 05:59:56;;;;;;;32.20;15.48;;;;;;;0.96;66.78;99607.25;5058115;28;20475;-53
2022/03/11 06:02:22;;;;;;;31.65;15.68;;;;;;;1.49;68.88;99605.66;5057595;28;20523;-50
2022/03/11 06:04:47;;;;;;;34.50;15.27;;;;;;;1.56;67.90;99603.13;5054043;28;20028;-54
2022/03/11 06:07:13;;;;;;;28.10;14.05;;;;;;;1.64;68.84;99605.72;5054814;28;20036;-53
2022/03/11 06:09:38;;;;;;;29.52;13.85;;;;;;;1.47;68.13;99603.19;5054735;28;20043;-52
2022/03/11 06:12:04;;;;;;;32.47;15.43;;;;;;;1.53;65.74;99601.66;5032483;28;20180;-52
2022/03/11 06:14:30;;;;;;;31.52;15.02;;;;;;;1.49;66.09;99582.69;5059571;28;20028;-54
2022/03/11 06:16:55;;;;;;;31.55;14.68;;;;;;;1.39;64.39;99579.44;5051210;28;20391;-54
2022/03/11 06:19:20;;;;;;;32.38;14.18;;;;;;;1.56;64.89;99589.94;5052956;28;20077;-54
2022/03/11 06:21:46;;;;;;;32.38;15.65;;;;;;;1.55;63.76;99593.56;5033977;28;20032;-53
2022/03/11 06:24:11;;;;;;;32.60;15.52;;;;;;;1.01;65.88;99591.72;5052156;28;20032;-54
2022/03/11 06:26:37;;;;;;;34.85;15.77;;;;;;;1.05;65.93;99593.84;5048622;28;20036;-51
2022/03/11 06:29:03;;;;;;;34.60;16.20;;;;;;;1.88;63.66;99597.63;5047441;28;20386;-53
2022/03/11 06:31:28;;;;;;;30.30;16.25;;;;;;;3.46;58.82;99591.28;5048381;28;20040;-53
2022/03/11 06:33:54;;;;;;;33.40;15.85;;;;;;;4.31;54.90;99608.19;5050231;28;20033;-54
2022/03/11 06:36:20;;;;;;;34.08;16.27;;;;;;;4.97;52.52;99603.31;5046806;28;20043;-54
2022/03/11 06:38:45;;;;;;;35.50;16.85;;;;;;;5.75;49.35;99600.28;5057099;28;20407;-52
2022/03/11 06:41:11;;;;;;;46.63;21.48;;;;;;;5.33;50.41;99606.72;5051058;28;20029;-54
2022/03/11 06:43:36;;;;;;;52.03;25.00;;;;;;;6.09;48.05;99608.34;5059656;28;20070;-54
2022/03/11 06:46:02;;;;;;;53.22;23.15;;;;;;;3.67;52.97;99612.50;5052763;28;20036;-55
2022/03/11 06:48:31;;;;;;;52.38;24.23;;;;;;;3.25;57.37;99607.97;5049406;28;20342;-53
2022/03/11 06:50:57;;;;;;;50.72;25.02;;;;;;;4.15;53.56;99609.28;5052543;28;20033;-52
2022/03/11 06:53:26;;;;;;;47.30;21.23;;;;;;;5.53;50.98;99612.09;5054972;28;20511;-52
2022/03/11 06:55:53;;;;;;;39.70;19.35;;;;;;;6.70;48.20;99613.44;5058175;28;20152;-53
2022/03/11 06:58:18;;;;;;;59.83;25.65;;;;;;;7.12;46.97;99614.75;5055175;28;20037;-53
2022/03/11 07:00:44;;;;;;;67.47;30.13;;;;;;;7.15;45.64;99610.03;5048678;28;20094;-52
2022/03/11 07:03:09;;;;;;;67.43;32.38;;;;;;;6.77;47.16;99616.09;5048892;28;20543;-55
2022/03/11 07:05:34;;;;;;;66.82;35.20;;;;;;;7.64;45.20;99617.41;5053007;28;20071;-54
2022/03/11 07:08:00;;;;;;;61.20;30.20;;;;;;;6.22;47.40;99611.03;5051265;28;20028;-55
2022/03/11 07:10:25;;;;;;;57.13;28.67;;;;;;;6.43;47.07;99612.66;5052795;28;20503;-53
2022/03/11 07:12:51;;;;;;;61.40;27.45;;;;;;;6.39;48.63;99614.06;5052827;28;20098;-53
2022/03/11 07:15:16;;;;;;;54.60;26.85;;;;;;;5.89;48.57;99616.25;5058136;28;20032;-52
2022/03/11 07:17:42;;;;;;;50.95;23.23;;;;;;;4.50;52.06;99622.63;5045993;28;20036;-50
2022/03/11 07:20:08;;;;;;;50.25;21.15;;;;;;;6.51;47.19;99625.75;5050905;28;20029;-51
2022/03/11 07:22:34;;;;;;;45.60;21.08;;;;;;;6.40;46.76;99618.38;5049386;28;20025;-52
2022/03/11 07:25:00;;;;;;;47.88;20.88;;;;;;;7.53;44.64;99624.22;5053144;28;20028;-53
2022/03/11 07:27:25;;;;;;;37.20;19.05;;;;;;;6.48;45.48;99628.81;5047612;28;20037;-52
2022/03/11 07:29:51;;;;;;;36.53;19.30;;;;;;;5.91;47.69;99632.84;5054891;28;20028;-53
2022/03/11 07:32:17;;;;;;;44.65;20.55;;;;;;;6.24;47.76;99631.09;5051659;28;20082;-50
2022/03/11 07:34:42;;;;;;;46.65;22.50;;;;;;;5.01;49.52;99624.16;5056326;28;20029;-55
2022/03/11 07:37:11;;;;;;;41.15;20.17;;;;;;;5.01;49.60;99622.31;5050351;28;20067;-51
2022/03/11 07:39:38;;;;;;;40.15;20.10;;;;;;;4.51;51.45;99630.38;5054650;28;20031;-54
2022/03/11 07:42:04;;;;;;;48.28;21.90;;;;;;;4.31;51.38;99629.41;5057743;28;20028;-53
2022/03/11 07:44:29;;;;;;;44.10;20.65;;;;;;;4.49;50.68;99621.81;5048394;28;20016;-51
2022/03/11 07:46:55;;;;;;;41.35;20.55;;;;;;;5.74;48.23;99624.41;5049729;28;20040;-54
2022/03/11 07:49:22;;;;;;;47.67;22.95;;;;;;;5.91;47.29;99624.88;5054058;28;20036;-52
2022/03/11 07:51:47;;;;;;;40.55;18.60;;;;;;;6.26;46.62;99607.75;5055244;28;20036;-52
2022/03/11 07:54:13;;;;;;;45.42;20.10;;;;;;;5.63;48.80;99613.34;5048336;28;20029;-53
2022/03/11 07:56:38;;;;;;;41.25;19.70;;;;;;;5.86;47.21;99617.50;5054295;28;20044;-52
2022/03/11 07:59:05;;;;;;;44.80;20.10;;;;;;;5.56;48.27;99627.66;5053317;28;20455;-50
2022/03/11 08:01:31;;;;;;;39.53;17.67;;;;;;;6.04;47.16;99616.94;5046161;28;20071;-51
2022/03/11 08:03:57;;;;;;;44.78;19.58;;;;;;;5.64;48.14;99614.16;5053533;28;20052;-53
2022/03/11 08:06:22;;;;;;;36.38;18.52;;;;;;;6.01;46.48;99604.84;5046523;28;20490;-50
2022/03/11 08:08:47;;;;;;;37.88;20.13;;;;;;;4.89;48.41;99606.13;5059535;28;20021;-52
2022/03/11 08:11:16;;;;;;;42.28;20.75;;;;;;;5.78;47.35;99607.88;5049960;28;20033;-53
2022/03/11 08:13:42;;;;;;;42.00;17.15;;;;;;;5.86;46.73;99603.38;5055609;28;20107;-51
2022/03/11 08:16:07;;;;;;;41.83;20.40;;;;;;;5.83;46.69;99602.75;5052597;28;20135;-50
2022/03/11 08:18:33;;;;;;;40.03;21.45;;;;;;;5.06;47.88;99608.44;5046422;28;20041;-52
2022/03/11 08:20:58;;;;;;;44.10;20.98;;;;;;;5.70;47.50;99607.25;5048623;28;20029;-53
2022/03/11 08:23:24;;;;;;;34.80;15.82;;;;;;;5.66;47.02;99608.66;5056438;28;20378;-54
2022/03/11 08:25:49;;;;;;;45.00;23.73;;;;;;;4.97;48.01;99613.94;5055243;28;20034;-52
2022/03/11 08:28:16;;;;;;;37.95;17.00;;;;;;;5.80;46.86;99605.81;5060847;28;20417;-53
2022/03/11 08:30:42;;;;;;;39.47;20.83;;;;;;;5.35;46.98;99588.75;5059393;28;20069;-53
2022/03/11 08:33:08;;;;;;;27.73;14.57;;;;;;;5.14;48.15;99602.94;5054964;28;20025;-50
2022/03/11 08:35:33;;;;;;;35.45;18.63;;;;;;;4.89;48.26;99586.69;5053872;28;20058;-51
2022/03/11 08:37:59;;;;;;;41.80;21.60;;;;;;;5.59;47.42;99590.00;5089885;28;20032;-51
2022/03/11 08:40:26;;;;;;;35.63;18.80;;;;;;;5.31;48.12;99583.00;5051482;28;20037;-52
2022/03/11 08:42:51;;;;;;;33.92;16.30;;;;;;;5.48;47.04;99593.28;5062134;28;20020;-52
2022/03/11 08:45:18;;;;;;;35.42;17.05;;;;;;;6.76;44.95;99575.28;5057327;28;20075;-53
2022/03/11 08:47:44;;;;;;;42.38;20.85;;;;;;;6.21;45.64;99572.91;5055164;28;20072;-55
2022/03/11 08:50:09;;;;;;;38.63;18.23;;;;;;;5.96;46.00;99570.06;5057033;28;20151;-53
2022/03/11 08:52:36;;;;;;;72.00;17.40;;;;;;;5.82;46.49;99557.75;5081202;28;20048;-52
2022/03/11 08:55:02;;;;;;;36.83;17.17;;;;;;;6.75;45.31;99563.00;5059304;28;20036;-53
2022/03/11 08:57:27;;;;;;;37.83;19.60;;;;;;;5.67;46.57;99570.44;5049623;28;20060;-54
2022/03/11 08:59:54;;;;;;;27.23;15.10;;;;;;;6.09;45.71;99558.63;5057750;28;20064;-51
2022/03/11 09:02:21;;;;;;;39.65;19.10;;;;;;;5.99;46.49;99558.19;5057966;28;20597;-52
2022/03/11 09:04:47;;;;;;;44.20;19.45;;;;;;;6.02;46.44;99560.47;5057602;28;20021;-55
2022/03/11 09:07:12;;;;;;;37.15;18.00;;;;;;;5.50;46.76;99560.16;5073463;28;20561;-53
2022/03/11 09:09:38;;;;;;;27.08;13.88;;;;;;;5.74;46.28;99561.44;5053820;28;20471;-53
2022/03/11 09:12:04;;;;;;;42.83;21.00;;;;;;;5.84;45.67;99567.16;5055637;28;20122;-51
2022/03/11 09:14:32;;;;;;;43.58;21.02;;;;;;;6.23;45.41;99560.22;5053920;28;20021;-55
2022/03/11 09:16:58;;;;;;;33.28;14.98;;;;;;;6.15;45.60;99557.78;5083569;28;20113;-53
2022/03/11 09:19:23;;;;;;;38.50;18.48;;;;;;;5.97;46.13;99576.22;5057861;28;20087;-54
2022/03/11 09:21:49;;;;;;;36.83;18.05;;;;;;;6.61;45.01;99562.22;5052615;28;20021;-53
2022/03/11 09:24:15;;;;;;;34.40;14.77;;;;;;;6.81;44.09;99562.16;5050990;28;20060;-52
2022/03/11 09:26:40;;;;;;;35.83;16.90;;;;;;;6.88;44.99;99562.16;5053714;28;20364;-54
2022/03/11 09:29:06;;;;;;;40.67;21.20;;;;;;;6.53;44.57;99562.44;5052822;28;20082;-53
2022/03/11 09:31:32;;;;;;;37.20;20.30;;;;;;;6.68;44.84;99560.34;5047984;28;20395;-51
2022/03/11 09:33:57;;;;;;;35.60;17.83;;;;;;;6.99;43.98;99560.66;5051043;28;20040;-54
2022/03/11 09:36:25;;;;;;;40.30;22.83;;;;;;;6.60;44.24;99557.94;5049401;28;20031;-51
2022/03/11 09:38:51;;;;;;;39.53;18.48;;;;;;;7.35;43.23;99568.13;5050918;28;20471;-51
2022/03/11 09:41:16;;;;;;;41.83;17.52;;;;;;;8.00;41.38;99573.25;5049416;28;20052;-54
2022/03/11 09:43:42;;;;;;;32.42;17.15;;;;;;;7.02;43.37;99577.06;5050108;28;20029;-55
2022/03/11 09:46:08;;;;;;;36.72;18.42;;;;;;;7.90;41.81;99573.72;5058561;28;20035;-50
2022/03/11 09:48:34;;;;;;;31.80;17.17;;;;;;;7.44;42.48;99561.50;5056162;28;20037;-52
2022/03/11 09:50:59;;;;;;;39.15;19.48;;;;;;;7.76;41.79;99556.16;5056981;28;20086;-54
2022/03/11 09:53:27;;;;;;;32.22;18.15;;;;;;;7.52;41.63;99552.44;5035890;28;20236;-52
2022/03/11 09:55:53;;;;;;;35.45;16.77;;;;;;;7.66;42.52;99548.66;5061870;28;20471;-52
2022/03/11 09:58:18;;;;;;;36.45;17.83;;;;;;;7.05;42.65;99541.19;5054489;28;20032;-54
2022/03/11 10:00:43;;;;;;;24.05;11.90;;;;;;;7.09;43.23;99556.56;5049636;28;20403;-53
2022/03/11 10:03:09;;;;;;;35.20;16.85;;;;;;;7.65;42.48;99551.53;5055148;28;20058;-52
2022/03/11 10:05:48;;;;;;;36.92;15.35;;;;;;;7.64;41.82;99549.88;5051342;28;20025;-54
2022/03/11 10:08:14;;;;;;;33.90;17.40;;;;;;;7.62;41.43;99539.44;5054453;28;20033;-53
2022/03/11 10:10:39;;;;;;;37.85;17.25;;;;;;;7.89;41.86;99553.41;5053636;28;20025;-54
2022/03/11 10:13:08;;;;;;;34.28;18.15;;;;;;;8.39;40.85;99548.09;5063505;28;20033;-54
2022/03/11 10:15:34;;;;;;;32.75;16.70;;;;;;;8.23;41.15;99537.13;5053704;28;20029;-51
2022/03/11 10:18:02;;;;;;;33.83;17.23;;;;;;;8.49;40.24;99552.13;5051528;28;20020;-54
2022/03/11 10:20:29;;;;;;;34.60;17.17;;;;;;;8.38;39.95;99556.28;5056662;28;20487;-53
2022/03/11 10:22:55;;;;;;;31.67;16.95;;;;;;;8.05;40.91;99541.38;5047917;28;20463;-52
2022/03/11 10:25:23;;;;;;;28.02;16.20;;;;;;;7.97;41.25;99549.66;5053086;28;20071;-52
2022/03/11 10:28:01;;;;;;;34.28;18.25;;;;;;;8.18;40.94;99535.91;5051997;28;20017;-54
2022/03/11 10:30:27;;;;;;;33.90;17.77;;;;;;;8.59;39.91;99531.88;5054547;28;20021;-52
2022/03/11 10:32:54;;;;;;;33.65;16.58;;;;;;;8.66;40.14;99531.78;5060053;28;20491;-53
2022/03/11 10:35:19;;;;;;;36.90;17.13;;;;;;;8.47;39.96;99528.28;5051805;28;20387;-52
2022/03/11 10:37:57;;;;;;;36.08;18.23;;;;;;;8.60;39.97;99527.34;5053873;28;20117;-55
2022/03/11 10:40:22;;;;;;;34.63;16.38;;;;;;;8.27;40.29;99522.31;5062133;28;20472;-52
2022/03/11 10:42:48;;;;;;;23.42;12.32;;;;;;;8.17;39.95;99517.47;5050049;28;20550;-52
2022/03/11 10:45:13;;;;;;;35.22;17.90;;;;;;;9.21;39.19;99518.38;5051933;28;20044;-53
2022/03/11 10:47:40;;;;;;;26.15;13.63;;;;;;;8.75;39.21;99517.09;5067642;28;20233;-51
2022/03/11 10:50:07;;;;;;;33.50;16.90;;;;;;;9.48;39.29;99518.00;5052879;28;20036;-53
2022/03/11 10:52:44;;;;;;;34.03;17.75;;;;;;;8.47;40.41;99514.94;5053809;28;20040;-51
2022/03/11 10:55:23;;;;;;;41.55;18.83;;;;;;;9.07;39.88;99511.56;5046649;28;20387;-52
2022/03/11 10:57:51;;;;;;;33.15;14.77;;;;;;;8.40;40.17;99500.81;5047959;28;20404;-54
2022/03/11 11:00:17;;;;;;;28.33;16.35;;;;;;;8.99;38.60;99503.88;5045391;28;20025;-54
2022/03/11 11:02:44;;;;;;;32.97;16.17;;;;;;;9.29;38.67;99504.69;5051703;28;20025;-54
2022/03/11 11:05:11;;;;;;;36.00;19.17;;;;;;;8.49;40.01;99494.16;5053024;28;20048;-51
2022/03/11 11:07:36;;;;;;;32.58;19.08;;;;;;;8.92;39.23;99497.78;5051382;28;20024;-54
2022/03/11 11:10:02;;;;;;;27.83;14.27;;;;;;;8.70;39.80;99490.22;5051081;28;20086;-53
2022/03/11 11:12:27;;;;;;;35.47;16.63;;;;;;;9.51;38.25;99496.16;5051924;28;20353;-54
2022/03/11 11:14:52;;;;;;;31.70;16.90;;;;;;;9.32;38.00;99494.56;5081076;28;20024;-54
2022/03/11 11:17:18;;;;;;;28.17;16.48;;;;;;;8.12;39.10;99493.28;5048399;28;20053;-56
2022/03/11 11:19:43;;;;;;;35.70;17.10;;;;;;;8.71;38.81;99488.34;5080027;28;20474;-53